Time;durP1;ratioP1;P1;durP2;ratioP2;P2;SDS_P1;SDS_P2;PMS_P1;PMS_P2;Temp;Humidity;BMP_temperature;BMP_pressure;BME280_temperature;BME280_humidity;BME280_pressure;Samples;Min_cycle;Max_cycle;Signal;HPM_P1;HPM_P2
2023/02/28 00:00:22;;;;;;;8.43;2.33;;;;;;;0.14;100.00;102245.16;4968066;29;20039;-96
2023/02/28 00:54:10;;;;;;;7.22;2.53;;;;;;;-0.46;100.00;102277.22;4922473;29;20045;-96
2023/02/28 00:56:45;;;;;;;7.45;1.90;;;;;;;-0.56;100.00;102296.47;4923388;29;20411;-96
2023/02/28 00:59:20;;;;;;;14.25;2.50;;;;;;;-0.83;100.00;102278.19;4923191;29;20546;-96
2023/02/28 01:01:51;;;;;;;5.20;2.15;;;;;;;-0.75;100.00;102297.81;4923007;29;20116;-96
2023/02/28 01:04:22;;;;;;;12.45;3.75;;;;;;;-0.87;100.00;102284.91;4921585;29;20028;-96
2023/02/28 01:06:56;;;;;;;9.65;2.28;;;;;;;-0.78;100.00;102333.25;4921206;29;20040;-96
2023/02/28 01:09:27;;;;;;;5.18;2.05;;;;;;;-1.09;100.00;102293.75;4925255;29;20025;-96
2023/02/28 01:12:06;;;;;;;6.35;2.53;;;;;;;-1.19;100.00;102294.38;4924731;29;20028;-96
2023/02/28 01:14:45;;;;;;;7.38;2.00;;;;;;;-1.35;100.00;102278.00;4924418;29;20099;-96
2023/02/28 01:17:37;;;;;;;9.65;2.60;;;;;;;-1.31;100.00;102293.28;4923618;29;20096;-96
2023/02/28 01:23:26;;;;;;;7.22;2.38;;;;;;;-1.14;100.00;102334.19;5072850;23;20056;-96
2023/02/28 01:25:52;;;;;;;8.68;2.45;;;;;;;-1.31;100.00;102321.16;4903323;29;20052;-96
2023/02/28 01:28:32;;;;;;;10.57;3.83;;;;;;;-1.48;100.00;102301.34;4902214;29;20064;-96
2023/02/28 01:31:16;;;;;;;9.50;4.05;;;;;;;-1.63;100.00;102287.53;4887066;29;20045;-96
2023/02/28 01:33:56;;;;;;;6.97;2.17;;;;;;;-1.27;100.00;102327.13;4886447;29;20048;-95
2023/02/28 01:36:41;;;;;;;6.97;1.83;;;;;;;-1.40;100.00;102308.28;4887973;29;20094;-96
2023/02/28 01:39:10;;;;;;;11.13;2.60;;;;;;;-1.33;100.00;102332.94;4886287;29;20404;-96
2023/02/28 01:41:48;;;;;;;6.40;2.40;;;;;;;-1.69;100.00;102281.47;4884960;29;20044;-95
2023/02/28 01:44:54;;;;;;;5.70;2.60;;;;;;;-1.49;100.00;102325.81;4901410;29;20033;-96
2023/02/28 01:47:53;;;;;;;7.72;2.65;;;;;;;-1.86;100.00;102279.38;4886140;29;20052;-96
2023/02/28 01:50:40;;;;;;;5.47;2.13;;;;;;;-1.65;100.00;102308.56;4901497;29;20037;-96
2023/02/28 01:53:08;;;;;;;10.93;2.55;;;;;;;-1.93;100.00;102272.47;4885727;29;20033;-96
2023/02/28 01:55:49;;;;;;;13.25;2.28;;;;;;;-1.71;100.00;102314.31;4885110;29;20044;-96
2023/02/28 01:58:42;;;;;;;6.43;2.05;;;;;;;-2.09;100.00;102272.94;4887211;29;20029;-96
2023/02/28 02:01:23;;;;;;;8.98;2.35;;;;;;;-1.91;100.00;102267.47;4886173;29;20033;-96
2023/02/28 02:03:59;;;;;;;10.80;2.50;;;;;;;-1.76;100.00;102288.06;4883454;29;20053;-96
2023/02/28 02:06:37;;;;;;;9.25;2.30;;;;;;;-1.64;100.00;102300.13;4883750;29;20037;-96
2023/02/28 02:09:03;;;;;;;4.88;2.17;;;;;;;-1.91;100.00;102270.00;4883826;29;20037;-96
2023/02/28 02:11:43;;;;;;;12.77;2.95;;;;;;;-1.88;100.00;102260.78;4884791;29;20514;-96
2023/02/28 02:18:15;;;;;;;10.57;2.60;;;;;;;-1.52;100.00;102320.66;4883438;29;20045;-96
2023/02/28 02:23:44;;;;;;;4.97;1.92;;;;;;;-1.61;100.00;102317.91;5076622;23;20056;-96
2023/02/28 02:26:44;;;;;;;11.80;3.17;;;;;;;-1.93;100.00;102275.00;4921172;29;20119;-96
2023/02/28 02:29:30;;;;;;;7.15;2.03;;;;;;;-1.61;100.00;102312.84;4921774;29;20047;-96
2023/02/28 02:32:11;;;;;;;5.30;1.90;;;;;;;-1.71;100.00;102301.66;4920260;29;20028;-96
2023/02/28 02:35:04;;;;;;;11.40;2.47;;;;;;;-1.79;100.00;102280.41;4920761;29;20036;-96
2023/02/28 02:37:40;;;;;;;6.10;2.45;;;;;;;-1.87;100.00;102271.78;4921824;29;20094;-96
2023/02/28 02:40:35;;;;;;;7.63;2.33;;;;;;;-1.80;100.00;102269.44;4922005;29;20036;-96
2023/02/28 02:43:13;;;;;;;8.82;2.30;;;;;;;-1.84;100.00;102275.22;4921022;29;20028;-96
2023/02/28 02:45:46;;;;;;;7.00;2.40;;;;;;;-1.66;100.00;102302.63;4923177;29;20055;-96
2023/02/28 02:48:17;;;;;;;6.80;2.80;;;;;;;-1.92;100.00;102269.13;4925756;29;20046;-96
2023/02/28 02:50:50;;;;;;;8.70;4.72;;;;;;;-1.74;100.00;102315.09;4925796;29;20041;-96
2023/02/28 02:53:24;;;;;;;7.57;2.55;;;;;;;-1.97;100.00;102288.41;4926789;29;20472;-96
2023/02/28 02:55:58;;;;;;;7.20;2.40;;;;;;;-2.09;100.00;102265.34;4920389;29;20096;-96
2023/02/28 02:58:36;;;;;;;9.32;2.30;;;;;;;-1.85;100.00;102318.19;4925192;29;20506;-96
2023/02/28 03:01:05;;;;;;;4.65;2.20;;;;;;;-1.83;100.00;102319.97;4924460;29;20032;-96
2023/02/28 03:03:33;;;;;;;6.55;2.67;;;;;;;-1.97;100.00;102290.94;4925336;29;20024;-95
2023/02/28 03:06:03;;;;;;;7.93;2.17;;;;;;;-1.73;100.00;102314.31;4925152;29;20037;-96
2023/02/28 03:08:37;;;;;;;9.10;2.25;;;;;;;-2.04;100.00;102273.91;4926399;29;20482;-96
2023/02/28 03:11:15;;;;;;;9.55;2.13;;;;;;;-1.83;100.00;102266.81;4925728;29;20032;-96
2023/02/28 03:13:58;;;;;;;10.68;2.65;;;;;;;-1.34;100.00;102305.91;4925514;29;20033;-96
2023/02/28 03:16:40;;;;;;;7.22;2.22;;;;;;;-1.30;100.00;102295.00;4940305;29;20042;-96
2023/02/28 03:19:42;;;;;;;6.20;2.00;;;;;;;-1.10;100.00;102310.63;4931449;29;20045;-96
2023/02/28 03:22:33;;;;;;;12.23;3.53;;;;;;;-1.27;100.00;102257.88;4905745;29;20036;-96
2023/02/28 03:25:08;;;;;;;5.15;1.95;;;;;;;-1.05;100.00;102277.75;4906561;29;20093;-96
2023/02/28 03:27:50;;;;;;;7.13;2.10;;;;;;;-0.97;100.00;102283.84;4906538;29;20040;-96
2023/02/28 03:30:53;;;;;;;6.05;2.00;;;;;;;-1.14;100.00;102260.72;4906686;29;20036;-96
2023/02/28 03:33:28;;;;;;;6.13;1.73;;;;;;;-1.16;100.00;102254.75;4898529;29;20048;-96
2023/02/28 03:36:05;;;;;;;12.70;1.88;;;;;;;-1.18;100.00;102245.41;4906886;29;20071;-95
2023/02/28 03:39:05;;;;;;;7.63;2.22;;;;;;;-1.04;100.00;102264.28;4908291;29;20036;-96
2023/02/28 03:41:41;;;;;;;4.15;1.80;;;;;;;-1.22;100.00;102236.91;4903354;29;20402;-96
2023/02/28 03:44:28;;;;;;;8.80;2.20;;;;;;;-0.66;100.00;102292.03;4905575;29;20123;-96
2023/02/28 03:47:10;;;;;;;5.72;2.42;;;;;;;-0.79;100.00;102260.53;4906146;29;20028;-96
2023/02/28 03:49:45;;;;;;;7.70;2.00;;;;;;;-0.80;100.00;102258.84;4918679;29;20033;-96
2023/02/28 03:52:13;;;;;;;12.98;4.10;;;;;;;-0.35;100.00;102300.22;4907108;29;20064;-96
2023/02/28 03:54:54;;;;;;;5.95;1.83;;;;;;;-0.31;100.00;102254.63;4906928;29;20037;-96
2023/02/28 03:57:48;;;;;;;4.40;1.73;;;;;;;0.12;100.00;102295.94;4918368;29;20036;-96
2023/02/28 04:00:21;;;;;;;11.77;4.13;;;;;;;-0.10;100.00;102255.78;4901481;29;20028;-96
2023/02/28 04:02:52;;;;;;;3.70;1.70;;;;;;;0.02;100.00;102253.44;4918134;29;20025;-96
2023/02/28 04:05:19;;;;;;;3.00;1.40;;;;;;;0.05;100.00;102252.63;4902375;29;20029;-96
2023/02/28 04:07:48;;;;;;;5.07;1.70;;;;;;;0.32;100.00;102263.22;4908372;29;20451;-96
2023/02/28 04:10:14;;;;;;;4.35;1.98;;;;;;;0.38;100.00;102258.22;4915877;29;20028;-96
2023/02/28 04:12:40;;;;;;;2.25;1.52;;;;;;;0.54;100.00;102281.31;4921493;29;20036;-96
2023/02/28 04:15:10;;;;;;;9.23;2.00;;;;;;;0.42;100.00;102252.34;4921407;29;20032;-96
2023/02/28 04:17:36;;;;;;;4.78;2.10;;;;;;;0.40;100.00;102241.31;4921896;29;20028;-96
2023/02/28 04:20:03;;;;;;;7.82;2.05;;;;;;;0.52;100.00;102252.47;4921067;29;20084;-96
2023/02/28 04:22:32;;;;;;;4.93;1.98;;;;;;;0.59;100.00;102262.75;4924038;29;20064;-96
2023/02/28 04:25:04;;;;;;;7.18;1.98;;;;;;;0.67;100.00;102265.38;4924019;29;20052;-96
2023/02/28 04:27:29;;;;;;;8.63;2.55;;;;;;;0.76;100.00;102280.75;4924815;29;20028;-96
2023/02/28 04:29:55;;;;;;;7.43;1.88;;;;;;;1.01;100.00;102317.50;4924625;29;20032;-96
2023/02/28 04:32:24;;;;;;;4.97;1.65;;;;;;;0.77;100.00;102277.34;4924568;29;20063;-96
2023/02/28 04:34:52;;;;;;;7.13;2.00;;;;;;;0.85;100.00;102275.78;4924547;29;20063;-96
2023/02/28 04:37:18;;;;;;;6.45;1.40;;;;;;;0.91;100.00;102271.59;4924953;29;20036;-96
2023/02/28 04:39:47;;;;;;;4.82;1.70;;;;;;;0.99;100.00;102262.38;4924393;29;20035;-96
2023/02/28 04:42:13;;;;;;;7.13;1.80;;;;;;;1.41;100.00;102319.63;4924995;29;20052;-96
2023/02/28 04:44:41;;;;;;;5.30;1.63;;;;;;;1.20;100.00;102271.94;4924093;29;20115;-96
2023/02/28 04:47:09;;;;;;;6.00;2.00;;;;;;;1.23;100.00;102272.81;4924071;29;20040;-96
2023/02/28 04:49:35;;;;;;;6.28;1.90;;;;;;;1.33;100.00;102288.19;4924007;29;20048;-96
2023/02/28 04:52:04;;;;;;;3.17;1.45;;;;;;;1.35;100.00;102286.50;4924082;29;20047;-96
2023/02/28 04:54:30;;;;;;;9.10;1.58;;;;;;;1.36;100.00;102285.66;4924859;29;20383;-96
2023/02/28 04:57:02;;;;;;;3.38;2.05;;;;;;;1.58;100.00;102324.91;4924558;29;20056;-96
2023/02/28 04:59:27;;;;;;;8.18;1.70;;;;;;;1.41;100.00;102296.72;4924338;29;20046;-96
2023/02/28 05:01:53;;;;;;;5.50;1.65;;;;;;;1.41;100.00;102271.28;4924574;29;20032;-96
2023/02/28 05:04:21;;;;;;;2.25;1.40;;;;;;;1.31;100.00;102274.59;4925096;29;20046;-96
2023/02/28 05:06:47;;;;;;;2.53;1.38;;;;;;;1.40;100.00;102290.81;4925315;29;20036;-96
2023/02/28 05:09:22;;;;;;;8.07;2.10;;;;;;;1.46;100.00;102305.25;4924702;29;20047;-96
2023/02/28 05:11:48;;;;;;;3.60;1.50;;;;;;;1.27;100.00;102287.28;4924809;29;20028;-96
2023/02/28 05:14:16;;;;;;;6.20;1.70;;;;;;;1.42;100.00;102289.13;4920741;29;20034;-95
2023/02/28 05:16:48;;;;;;;7.80;2.00;;;;;;;1.56;100.00;102313.84;4923439;29;20036;-96
2023/02/28 05:19:16;;;;;;;;;;;;;;;1.63;100.00;102329.19;4927712;29;20040;-96
2023/02/28 05:21:51;;;;;;;7.30;1.30;;;;;;;1.60;100.00;102330.88;4924116;29;20028;-96
2023/02/28 05:24:22;;;;;;;2.40;1.23;;;;;;;1.46;100.00;102313.78;4924330;29;20028;-96
2023/02/28 05:26:52;;;;;;;4.32;1.65;;;;;;;1.33;100.00;102303.44;4923994;29;20039;-96
2023/02/28 05:29:19;;;;;;;7.47;1.67;;;;;;;1.41;100.00;102315.38;4922554;29;20130;-96
2023/02/28 05:31:47;;;;;;;4.40;1.60;;;;;;;1.57;100.00;102343.56;4918800;29;20032;-96
2023/02/28 05:34:15;;;;;;;3.70;1.55;;;;;;;1.33;100.00;102308.53;4917676;29;20028;-96
2023/02/28 05:36:41;;;;;;;3.65;1.42;;;;;;;1.24;100.00;102299.97;4917861;29;20077;-96
2023/02/28 05:39:12;;;;;;;6.22;1.40;;;;;;;1.18;100.00;102310.06;4918764;29;20025;-95
2023/02/28 05:41:39;;;;;;;4.18;1.50;;;;;;;1.25;100.00;102332.19;4917931;29;20024;-96
2023/02/28 05:44:05;;;;;;;5.00;1.40;;;;;;;1.19;100.00;102318.53;4918072;29;20032;-94
2023/02/28 05:46:30;;;;;;;3.40;1.48;;;;;;;1.06;100.00;102305.69;4917334;29;20035;-96
2023/02/28 05:48:59;;;;;;;4.82;1.67;;;;;;;1.23;100.00;102328.78;4917480;29;20044;-96
2023/02/28 05:51:27;;;;;;;2.58;1.67;;;;;;;1.12;100.00;102304.88;4918813;29;20091;-96
2023/02/28 05:53:53;;;;;;;2.05;1.20;;;;;;;1.33;100.00;102344.16;4922173;29;20029;-96
2023/02/28 05:56:19;;;;;;;2.42;1.30;;;;;;;1.22;100.00;102332.16;4922088;29;20042;-96
2023/02/28 05:58:44;;;;;;;3.53;2.45;;;;;;;1.12;100.00;102319.31;4921128;29;20062;-94
2023/02/28 06:01:40;;;;;;;2.10;1.10;;;;;;;1.38;100.00;102358.63;4922466;29;20025;-95
2023/02/28 06:04:09;;;;;;;3.30;1.40;;;;;;;1.19;100.00;102321.94;4922532;29;20024;-95
2023/02/28 06:06:39;;;;;;;2.58;1.42;;;;;;;1.28;100.00;102336.47;4924488;29;20045;-96
2023/02/28 06:09:08;;;;;;;3.75;1.60;;;;;;;1.21;100.00;102316.88;4921554;29;20550;-96
2023/02/28 06:11:39;;;;;;;3.20;2.10;;;;;;;1.52;100.00;102355.38;4922005;29;20028;-96
2023/02/28 06:14:06;;;;;;;5.32;2.13;;;;;;;1.23;100.00;102308.41;4921259;29;20024;-96
2023/02/28 06:16:34;;;;;;;6.20;1.90;;;;;;;1.31;100.00;102302.56;4922708;29;20040;-96
2023/02/28 06:19:02;;;;;;;5.95;2.92;;;;;;;1.37;100.00;102310.28;4920344;29;20033;-96
2023/02/28 06:21:31;;;;;;;5.68;2.67;;;;;;;1.41;100.00;102322.19;4922448;29;20055;-96
2023/02/28 06:23:58;;;;;;;4.22;1.95;;;;;;;1.49;100.00;102320.59;4921015;29;20035;-96
2023/02/28 06:26:24;;;;;;;3.92;2.63;;;;;;;1.46;100.00;102306.16;4916550;29;20507;-96
2023/02/28 06:28:50;;;;;;;6.80;2.42;;;;;;;1.53;100.00;102307.03;4920891;29;20103;-96
2023/02/28 06:31:18;;;;;;;3.17;2.10;;;;;;;1.52;100.00;102307.88;4923132;29;20471;-94
2023/02/28 06:33:44;;;;;;;4.32;2.13;;;;;;;1.55;100.00;102313.00;4921462;29;20064;-95
2023/02/28 06:36:13;;;;;;;3.45;2.10;;;;;;;1.63;100.00;102303.75;4922321;29;20562;-96
2023/02/28 06:38:40;;;;;;;5.03;2.30;;;;;;;1.60;100.00;102319.00;4922183;29;20036;-96
2023/02/28 06:41:07;;;;;;;3.58;2.40;;;;;;;1.71;100.00;102319.97;4921198;29;20024;-95
2023/02/28 06:43:39;;;;;;;6.03;2.92;;;;;;;1.69;100.00;102319.09;4920510;29;20028;-95
2023/02/28 06:46:07;;;;;;;3.53;2.30;;;;;;;1.74;100.00;102315.75;4935742;29;20035;-96
2023/02/28 06:48:34;;;;;;;5.28;2.00;;;;;;;1.75;100.00;102312.34;4919579;29;20020;-96
2023/02/28 06:51:21;;;;;;;3.75;2.20;;;;;;;1.92;100.00;102320.97;4922742;29;20024;-96
2023/02/28 06:53:53;;;;;;;4.03;1.92;;;;;;;2.04;100.00;102340.59;4905463;29;20032;-96
2023/02/28 06:56:23;;;;;;;3.92;1.20;;;;;;;1.89;100.00;102305.69;4920598;29;20028;-96
2023/02/28 06:58:50;;;;;;;2.92;1.67;;;;;;;2.01;100.00;102310.88;4921917;29;20064;-96
2023/02/28 07:01:17;;;;;;;4.07;1.40;;;;;;;2.30;100.00;102338.28;4921731;29;20103;-96
2023/02/28 07:03:42;;;;;;;1.38;1.10;;;;;;;2.19;100.00;102314.41;4919596;29;20032;-96
2023/02/28 07:06:08;;;;;;;8.18;1.95;;;;;;;2.19;100.00;102316.94;4920386;29;20035;-96
2023/02/28 07:08:35;;;;;;;2.15;1.23;;;;;;;2.19;100.00;102315.25;4935121;29;20043;-96
2023/02/28 07:11:03;;;;;;;3.35;1.45;;;;;;;2.38;100.00;102351.91;4921976;29;20039;-96
2023/02/28 07:13:32;;;;;;;3.83;2.00;;;;;;;2.19;100.00;102314.41;4921362;29;20032;-96
2023/02/28 07:16:02;;;;;;;2.53;1.73;;;;;;;2.47;100.00;102372.38;4921488;29;20064;-96
2023/02/28 07:18:34;;;;;;;3.03;1.63;;;;;;;2.37;100.00;102340.03;4921489;29;20036;-96
2023/02/28 07:21:05;;;;;;;1.70;1.50;;;;;;;2.40;100.00;102318.81;4922677;29;20127;-96
2023/02/28 07:23:31;;;;;;;2.95;1.55;;;;;;;2.78;100.00;102364.94;4921217;29;20032;-96
2023/02/28 07:26:06;;;;;;;2.08;1.27;;;;;;;2.53;100.00;102330.78;4920345;29;20035;-96
2023/02/28 07:28:37;;;;;;;2.63;1.52;;;;;;;2.85;100.00;102366.66;4922079;29;20032;-96
2023/02/28 07:31:05;;;;;;;2.88;1.50;;;;;;;2.84;100.00;102356.47;4916085;29;20058;-96
2023/02/28 07:33:36;;;;;;;1.80;1.38;;;;;;;2.68;100.00;102335.09;4921801;29;20175;-96
2023/02/28 07:36:06;;;;;;;;;;;;;;;3.00;100.00;102373.56;4922284;29;20036;-96
2023/02/28 07:38:37;;;;;;;2.20;1.27;;;;;;;2.93;100.00;102349.72;4911839;29;19975;-96
2023/02/28 07:41:07;;;;;;;3.40;1.80;;;;;;;3.02;100.00;102345.50;4916968;29;20107;-96
2023/02/28 07:43:37;;;;;;;2.50;1.60;;;;;;;2.97;100.00;102335.25;4913992;29;20107;-96
2023/02/28 07:46:12;;;;;;;2.95;1.70;;;;;;;3.12;100.00;102335.34;4907029;29;20064;-96
2023/02/28 07:48:38;;;;;;;2.92;1.95;;;;;;;3.45;100.00;102382.25;4917511;29;20032;-96
2023/02/28 07:51:04;;;;;;;3.20;2.47;;;;;;;3.49;100.00;102368.66;4907577;29;20123;-96
2023/02/28 07:53:30;;;;;;;2.78;2.05;;;;;;;3.50;100.00;102366.94;4900130;29;20119;-96
2023/02/28 07:55:57;;;;;;;10.48;3.60;;;;;;;3.49;100.00;102342.25;4911526;29;20119;-96
2023/02/28 07:58:26;;;;;;;5.95;4.10;;;;;;;3.55;100.00;102343.13;4900624;29;20042;-96
2023/02/28 08:00:52;;;;;;;5.25;4.00;;;;;;;3.63;100.00;102345.69;4915047;29;20518;-96
2023/02/28 08:03:22;;;;;;;5.45;4.20;;;;;;;3.90;98.76;102338.91;4905773;29;20035;-96
2023/02/28 08:05:52;;;;;;;5.43;3.90;;;;;;;4.17;97.12;102344.06;4911801;29;20036;-96
2023/02/28 08:08:23;;;;;;;6.38;4.13;;;;;;;4.72;95.46;102384.88;4914596;29;20036;-96
2023/02/28 08:10:52;;;;;;;5.50;4.15;;;;;;;4.92;92.84;102372.03;4916397;29;20553;-96
2023/02/28 08:13:28;;;;;;;6.97;4.28;;;;;;;5.07;90.74;102355.81;4909437;29;20029;-96
2023/02/28 08:15:55;;;;;;;7.68;4.53;;;;;;;5.03;88.38;102359.25;4916243;29;20060;-96
2023/02/28 08:18:27;;;;;;;10.93;4.90;;;;;;;4.92;89.79;102366.09;4916921;29;20036;-96
2023/02/28 08:20:57;;;;;;;4.93;4.30;;;;;;;4.70;90.77;102366.13;4911712;29;20032;-96
2023/02/28 08:23:36;;;;;;;;;;;;;;;;;;;;;
2023/02/28 08:26:06;;;;;;;8.48;4.03;;;;;;;5.23;89.79;102412.91;4915065;29;20102;-96
2023/02/28 08:28:39;;;;;;;6.85;4.20;;;;;;;5.10;88.68;102371.16;4914307;29;20067;-96
2023/02/28 08:31:10;;;;;;;5.43;4.57;;;;;;;5.19;88.10;102365.13;4907151;29;20476;-95
2023/02/28 08:33:38;;;;;;;5.05;4.10;;;;;;;5.08;88.95;102370.31;4901895;29;20484;-96
2023/02/28 08:36:05;;;;;;;6.35;3.92;;;;;;;4.94;89.85;102366.94;4909632;29;20036;-96
2023/02/28 08:38:38;;;;;;;5.18;4.30;;;;;;;5.26;88.98;102371.09;4910677;29;20060;-96
2023/02/28 08:41:09;;;;;;;5.28;4.38;;;;;;;5.36;89.22;102377.88;4908678;29;20017;-96
2023/02/28 08:54:04;;;;;;;5.97;3.70;;;;;;;6.62;81.73;102397.53;5564126;23;20053;-96
2023/02/28 10:46:12;;;;;;;7.07;3.25;;;;;;;7.14;77.59;102376.44;4910999;29;19958;-96
2023/02/28 10:48:48;;;;;;;4.70;3.20;;;;;;;7.49;75.01;102373.41;4911213;29;20083;-96
2023/02/28 10:51:22;;;;;;;4.68;3.47;;;;;;;7.98;72.33;102356.44;4925088;29;20041;-96
2023/02/28 10:53:53;;;;;;;5.72;3.28;;;;;;;8.40;70.16;102328.31;4921152;29;20029;-96
2023/02/28 10:57:06;;;;;;;;;;;;;;;;;;;;;
2023/02/28 11:17:44;;;;;;;5.63;5.03;;;;;;;8.44;69.34;102327.41;5869730;23;20010;-96
2023/02/28 11:20:23;;;;;;;6.53;4.97;;;;;;;8.61;70.09;102346.81;4985637;23;20060;-96
2023/02/28 11:22:56;;;;;;;6.90;5.10;;;;;;;8.47;70.61;102319.59;4918385;29;20032;-96
2023/02/28 11:25:57;;;;;;;9.40;6.53;;;;;;;8.82;70.13;102314.66;4935073;29;20028;-96
2023/02/28 14:15:37;;;;;;;5.53;4.45;;;;;;;9.84;67.95;102191.16;5774869;23;20052;-95
2023/02/28 14:24:47;;;;;;;;;;;;;;;;;;;;;
2023/02/28 14:27:39;;;;;;;6.70;5.50;;;;;;;8.73;72.84;102141.50;4882675;29;20059;-96
2023/02/28 14:30:21;;;;;;;5.43;4.43;;;;;;;9.08;72.38;102172.47;4897025;29;20039;-96
2023/02/28 14:33:23;;;;;;;4.53;3.95;;;;;;;8.80;74.26;102155.03;4897144;29;20059;-96
2023/02/28 14:36:00;;;;;;;5.65;4.40;;;;;;;8.88;74.47;102119.69;4888863;29;20462;-96
2023/02/28 14:38:34;;;;;;;5.75;4.22;;;;;;;8.87;73.99;102115.41;4901323;29;20029;-96
2023/02/28 14:41:06;;;;;;;5.38;4.50;;;;;;;8.53;75.05;102123.91;4900598;29;20031;-96
2023/02/28 14:43:32;;;;;;;4.63;3.65;;;;;;;8.28;75.13;102115.81;4904676;29;20029;-96
2023/02/28 14:46:04;;;;;;;5.43;4.35;;;;;;;8.12;77.06;102133.31;4907353;29;20104;-96
2023/02/28 14:48:30;;;;;;;6.13;4.00;;;;;;;8.02;77.45;102131.81;4906157;29;20096;-95
2023/02/28 14:51:00;;;;;;;6.60;3.17;;;;;;;7.96;77.77;102113.06;4880920;29;20025;-96
2023/02/28 14:53:30;;;;;;;4.75;3.20;;;;;;;7.78;76.50;102098.81;4900916;29;20040;-96
2023/02/28 14:55:55;;;;;;;3.28;2.80;;;;;;;8.10;75.84;102099.06;4897042;29;20036;-96
2023/02/28 14:58:27;;;;;;;6.05;3.53;;;;;;;8.27;74.79;102082.44;4896125;29;20033;-95
2023/02/28 15:01:20;;;;;;;;;;;;;;;8.47;75.20;102129.19;4908434;29;20056;-96
2023/02/28 15:03:47;;;;;;;4.07;2.92;;;;;;;8.23;75.24;102104.78;4901859;29;19920;-96
2023/02/28 15:06:17;;;;;;;3.88;2.67;;;;;;;8.31;74.57;102102.03;4902570;29;20037;-96
2023/02/28 15:08:43;;;;;;;4.30;2.88;;;;;;;8.31;74.69;102117.47;4876841;29;20408;-96
2023/02/28 15:11:16;;;;;;;3.67;3.00;;;;;;;8.35;74.88;102093.41;4881768;29;20045;-96
2023/02/28 15:13:50;;;;;;;4.57;3.30;;;;;;;7.89;75.80;102069.47;4880574;29;20032;-96
2023/02/28 15:16:28;;;;;;;4.45;3.22;;;;;;;8.25;76.88;102113.31;4896721;29;20044;-96
2023/02/28 15:19:14;;;;;;;3.35;2.63;;;;;;;8.11;76.72;102062.16;4883335;29;20033;-96
2023/02/28 15:22:35;;;;;;;2.58;2.20;;;;;;;8.07;76.91;102075.97;4884415;29;20013;-96
2023/02/28 15:28:04;;;;;;;2.47;2.00;;;;;;;7.09;81.58;102085.50;4882099;29;20425;-96
2023/02/28 15:30:32;;;;;;;4.30;2.33;;;;;;;6.94;82.47;102052.38;4899897;29;20037;-95
2023/02/28 15:33:11;;;;;;;3.40;2.38;;;;;;;6.88;82.94;102055.91;4881374;29;20373;-96
2023/02/28 15:54:43;;;;;;;5.57;2.75;;;;;;;7.64;80.10;102084.53;5537044;23;20060;-96
2023/02/28 15:57:17;;;;;;;3.63;2.80;;;;;;;7.12;81.13;102075.19;4899336;29;20081;-96
2023/02/28 16:51:29;;;;;;;3.05;2.75;;;;;;;6.34;85.13;102097.72;5395228;23;20507;-96
2023/02/28 16:54:06;;;;;;;6.50;3.63;;;;;;;6.29;83.82;102066.19;5086185;23;20119;-96
2023/02/28 16:56:33;;;;;;;3.22;2.80;;;;;;;6.39;84.43;102103.66;4895395;29;20037;-95
2023/02/28 16:59:05;;;;;;;3.92;3.53;;;;;;;6.48;83.49;102102.66;4903202;29;20078;-96
2023/02/28 17:46:33;;;;;;;3.03;2.20;;;;;;;5.53;86.86;102113.97;5969726;23;21079;-96
2023/02/28 17:58:16;;;;;;;4.03;3.03;;;;;;;5.12;89.21;102092.16;4874611;29;20049;-96
2023/02/28 18:00:47;;;;;;;4.03;2.67;;;;;;;5.16;89.82;102109.19;4902506;29;20164;-95
2023/02/28 18:03:16;;;;;;;4.82;3.20;;;;;;;5.14;90.71;102090.44;4889540;29;20025;-96
2023/02/28 18:16:56;;;;;;;5.30;2.45;;;;;;;5.01;91.74;102105.03;5288755;23;20045;-96
2023/02/28 18:19:42;;;;;;;3.90;2.92;;;;;;;4.76;93.07;102094.13;4890674;29;20037;-96
2023/02/28 18:22:38;;;;;;;;;;;;;;;;;;;;;
2023/02/28 18:56:12;;;;;;;4.10;3.20;;;;;;;5.07;94.44;102074.31;5161007;23;20065;-96
2023/02/28 18:59:14;;;;;;;7.47;4.00;;;;;;;5.28;94.84;102116.75;4912882;29;20033;-95
2023/02/28 19:02:02;;;;;;;;;;;;;;;;;;;;;
2023/02/28 19:04:32;;;;;;;5.60;4.05;;;;;;;5.12;94.92;102082.78;4909375;29;19972;-96
2023/02/28 19:06:58;;;;;;;7.03;4.97;;;;;;;5.33;94.94;102117.56;4893463;29;20037;-94
2023/02/28 19:09:34;;;;;;;;;;;;;;;;;;;;;
2023/02/28 19:14:47;;;;;;;5.82;4.65;;;;;;;5.21;95.43;102098.91;5487297;23;20079;-96
2023/02/28 19:17:40;;;;;;;5.85;4.05;;;;;;;5.17;97.40;102117.72;4900621;29;20033;-96
2023/02/28 19:20:16;;;;;;;6.90;4.80;;;;;;;4.67;98.01;102084.81;4899962;29;20032;-96
2023/02/28 19:23:05;;;;;;;5.25;4.10;;;;;;;4.82;100.00;102121.38;4902731;29;20079;-96
2023/02/28 19:25:41;;;;;;;7.10;4.00;;;;;;;4.57;100.00;102090.00;4892717;29;20037;-96
2023/02/28 19:28:08;;;;;;;6.38;3.88;;;;;;;4.46;100.00;102075.56;4884231;29;20958;-96
2023/02/28 19:34:16;;;;;;;4.78;3.45;;;;;;;4.24;100.00;102074.84;4879294;29;20029;-95
2023/02/28 19:36:41;;;;;;;5.13;3.67;;;;;;;4.07;100.00;102067.25;4864731;29;20040;-96
2023/02/28 19:43:37;;;;;;;4.53;3.80;;;;;;;4.03;100.00;102086.00;4875445;29;20137;-96
2023/02/28 19:46:28;;;;;;;5.50;3.97;;;;;;;4.04;100.00;102079.16;4830824;29;20171;-96
2023/02/28 19:48:55;;;;;;;5.72;3.78;;;;;;;4.03;100.00;102087.72;4814453;29;20050;-95
2023/02/28 19:51:22;;;;;;;4.65;3.92;;;;;;;4.17;100.00;102103.84;4863801;29;20041;-96
2023/02/28 19:53:59;;;;;;;4.57;3.90;;;;;;;4.01;100.00;102102.19;4879349;29;20449;-95
2023/02/28 19:56:45;;;;;;;5.10;3.67;;;;;;;3.95;100.00;102067.31;4879773;29;20096;-96
2023/02/28 19:59:11;;;;;;;4.72;3.50;;;;;;;4.21;100.00;102105.50;4895314;29;20025;-96
2023/02/28 20:01:38;;;;;;;5.30;3.85;;;;;;;4.28;100.00;102091.84;4876248;29;20041;-95
2023/02/28 20:27:53;;;;;;;6.15;4.70;;;;;;;4.67;97.25;102084.81;4926625;23;20060;-96
2023/02/28 20:31:16;;;;;;;6.20;4.20;;;;;;;4.68;97.98;102080.53;4908380;29;20096;-96
2023/02/28 20:34:23;;;;;;;;;;;;;;;;;;;;;
2023/02/28 20:37:34;;;;;;;5.90;5.00;;;;;;;4.81;96.32;102097.50;4907759;29;20100;-96
2023/02/28 20:41:12;;;;;;;6.25;5.15;;;;;;;4.62;98.91;102101.88;4900945;29;20037;-96
2023/02/28 20:44:36;;;;;;;6.63;4.70;;;;;;;4.61;98.58;102095.09;4899396;29;20040;-96
2023/02/28 20:54:34;;;;;;;6.07;4.93;;;;;;;4.89;95.45;102111.09;4872055;29;20053;-96
2023/02/28 21:00:28;;;;;;;;;;;;;;;;;;;;;
2023/02/28 21:07:00;;;;;;;6.85;4.97;;;;;;;5.05;93.40;102116.97;4911179;29;20083;-96
2023/02/28 21:10:37;;;;;;;6.28;4.85;;;;;;;5.03;91.82;102113.56;4915312;29;20048;-96
2023/02/28 21:17:48;;;;;;;;;;;;;;;;;;;;;
2023/02/28 21:21:21;;;;;;;;;;;;;;;;;;;;;
2023/02/28 21:27:35;;;;;;;;;;;;;;;;;;;;;
2023/02/28 22:38:38;;;;;;;;;;;;;;;;;;;;;
